SFO weather

San Francisco International Airport
San Francisco, California, United States

Public forecast

Using degrees Fahrenheit for public forecast. Weather courtesy of forecast.io.

METAR (pilot weather report)

Retrieved 2018/04/26 19:56 UTC (40 minutes ago):

KSFO 261956Z 28014KT 10SM CLR 16/07 A3003 RMK AO2 SLP169 T01610067 CHINO RWY L10 $

TAF (pilot weather forecast)

Retrieved 2018/04/26 18:39 UTC (2 hours ago):

TAF KSFO 261737Z 2618/2724 26010KT P6SM FEW020 FEW200 FM262000 30015KT P6SM FEW020 FM270300 29011KT P6SM SCT020 FM270700 26007KT P6SM BKN020 FM271700 28008KT P6SM SCT020 FM272000 30015KT P6SM FEW020